createdAt,value
2023-03-12T00:05:34.311Z,26.8
2023-03-12T00:11:39.870Z,26.7
2023-03-12T00:17:45.506Z,26.9
2023-03-12T00:23:51.072Z,26.8
2023-03-12T00:29:56.996Z,26.8
2023-03-12T00:36:03.439Z,26.8
2023-03-12T00:42:08.949Z,26.8
2023-03-12T00:48:15.147Z,26.8
2023-03-12T00:54:21.019Z,26.8
2023-03-12T01:00:27.002Z,26.8
2023-03-12T01:06:32.784Z,26.8
2023-03-12T01:12:38.044Z,26.8
2023-03-12T01:18:43.597Z,26.8
2023-03-12T01:24:49.816Z,26.8
2023-03-12T01:30:55.596Z,26.9
2023-03-12T01:37:01.749Z,26.9
2023-03-12T01:43:07.741Z,26.9
2023-03-12T01:49:13.706Z,26.9
2023-03-12T01:55:19.896Z,26.9
2023-03-12T02:01:25.788Z,27
2023-03-12T02:07:31.733Z,27
2023-03-12T02:13:37.638Z,27
2023-03-12T02:19:43.302Z,27
2023-03-12T02:25:49.417Z,27
2023-03-12T02:31:55.871Z,27
2023-03-12T02:38:02.196Z,27.1
2023-03-12T02:44:08.608Z,27.3
2023-03-12T02:50:14.758Z,27
2023-03-12T02:56:20.868Z,27.1
2023-03-12T03:02:26.195Z,27
2023-03-12T03:08:32.012Z,27.1
2023-03-12T03:14:37.740Z,27.2
2023-03-12T03:20:43.706Z,27.2
2023-03-12T03:26:49.457Z,27.3
2023-03-12T03:32:55.194Z,27.3
2023-03-12T03:39:01.195Z,27.4
2023-03-12T03:45:07.155Z,27.4
2023-03-12T03:51:12.787Z,27.5
2023-03-12T03:57:18.905Z,27.5
2023-03-12T04:03:24.562Z,27.7
2023-03-12T04:09:30.495Z,27.7
2023-03-12T04:15:36.224Z,27.7
2023-03-12T04:21:42.019Z,27.8
2023-03-12T04:27:47.265Z,27.8
2023-03-12T04:33:52.820Z,27.9
2023-03-12T04:39:58.964Z,28
2023-03-12T04:46:04.910Z,28.1
2023-03-12T04:52:11.744Z,28.3
2023-03-12T04:58:17.327Z,28.3
2023-03-12T05:04:23.288Z,28.3
2023-03-12T05:10:29.873Z,28.4
2023-03-12T05:16:36.124Z,28.4
2023-03-12T05:22:42.276Z,28.4
2023-03-12T05:28:47.704Z,28.4
2023-03-12T05:34:53.071Z,28.5
2023-03-12T05:40:58.965Z,28.5
2023-03-12T05:47:05.163Z,28.5
2023-03-12T05:53:11.154Z,28.5
2023-03-12T05:59:16.726Z,28.6
2023-03-12T06:05:22.478Z,28.6
2023-03-12T06:11:28.873Z,28.5
2023-03-12T06:17:34.665Z,28.6
2023-03-12T06:23:40.423Z,28.7
2023-03-12T06:29:45.997Z,28.7
2023-03-12T06:35:52.105Z,28.7
2023-03-12T06:41:58.164Z,28.8
2023-03-12T06:48:04.369Z,28.9
2023-03-12T06:54:10.151Z,28.9
2023-03-12T07:00:16.549Z,28.9
2023-03-12T07:06:22.109Z,29
2023-03-12T07:12:27.677Z,29.1
2023-03-12T07:18:33.838Z,29.2
2023-03-12T07:24:39.643Z,29.3
2023-03-12T07:30:45.437Z,29.4
2023-03-12T07:36:52.232Z,29.6
2023-03-12T07:42:58.201Z,29.6
2023-03-12T07:49:04.365Z,29.8
2023-03-12T07:55:10.544Z,29.8
2023-03-12T08:01:16.781Z,29.9
2023-03-12T08:07:22.628Z,30
2023-03-12T08:13:28.532Z,30.1
2023-03-12T08:19:34.343Z,30.3
2023-03-12T08:25:39.833Z,30.3
2023-03-12T08:32:07.467Z,30.5
2023-03-12T08:38:13.516Z,30.4
2023-03-12T08:44:19.202Z,30.5
2023-03-12T08:50:25.076Z,30.6
2023-03-12T08:56:31.526Z,30.8
2023-03-12T09:02:37.490Z,30.8
2023-03-12T09:08:43.655Z,30.9
2023-03-12T09:15:07.461Z,31
2023-03-12T09:21:13.830Z,31
2023-03-12T09:27:19.825Z,31.1
2023-03-12T09:33:25.793Z,31.2
2023-03-12T09:39:31.157Z,31.3
2023-03-12T09:45:36.944Z,31.2
2023-03-12T09:51:43.193Z,31.4
2023-03-12T09:57:49.103Z,31.3
2023-03-12T10:03:55.317Z,31.3
2023-03-12T10:10:01.277Z,31.4
2023-03-12T10:16:07.303Z,31.6
2023-03-12T10:22:13.226Z,31.5
2023-03-12T10:28:19.637Z,31.6
2023-03-12T10:34:25.423Z,31.5
2023-03-12T10:40:31.398Z,31.6
2023-03-12T10:46:38.254Z,31.7
2023-03-12T10:52:43.862Z,31.8
2023-03-12T10:58:50.155Z,31.8
2023-03-12T11:04:56.340Z,31.8
2023-03-12T11:11:02.322Z,31.9
2023-03-12T11:17:08.511Z,32
2023-03-12T11:23:14.299Z,32.1
2023-03-12T11:29:20.496Z,32.2
2023-03-12T11:35:26.955Z,32
2023-03-12T11:41:32.895Z,32.2
2023-03-12T11:47:39.369Z,32.4
2023-03-12T11:53:45.228Z,32
2023-03-12T11:59:51.401Z,32.3
2023-03-12T12:05:57.469Z,32.4
2023-03-12T12:12:07.064Z,32.7
2023-03-12T12:18:12.946Z,31.9
2023-03-12T12:24:21.908Z,32.6
2023-03-12T12:30:28.486Z,32.3
2023-03-12T12:36:34.675Z,31.9
2023-03-12T12:42:40.665Z,32.1
2023-03-12T12:48:47.042Z,32
2023-03-12T12:54:53.437Z,32.3
2023-03-12T13:00:59.523Z,32.4
2023-03-12T13:07:06.037Z,32.6
2023-03-12T13:13:12.205Z,32.3
2023-03-12T13:19:18.406Z,32.7
2023-03-12T13:25:24.560Z,32.8
2023-03-12T13:31:30.887Z,33
2023-03-12T13:37:36.753Z,32.6
2023-03-12T13:43:43.148Z,33
2023-03-12T13:49:49.519Z,33.3
2023-03-12T13:55:55.710Z,32.9
2023-03-12T14:02:02.015Z,33.3
2023-03-12T14:08:08.291Z,33.8
2023-03-12T14:14:14.684Z,33.5
2023-03-12T14:20:21.069Z,33.4
2023-03-12T14:26:27.085Z,33.4
2023-03-12T14:32:33.312Z,33.4
2023-03-12T14:38:39.233Z,33.2
2023-03-12T14:44:45.223Z,32.8
2023-03-12T14:50:51.592Z,33.1
2023-03-12T14:56:57.447Z,33.2
2023-03-12T15:03:02.953Z,33.4
2023-03-12T15:09:08.722Z,33.2
2023-03-12T15:15:14.905Z,33.3
2023-03-12T15:21:21.104Z,33.4
2023-03-12T15:27:27.284Z,33.4
2023-03-12T15:33:34.081Z,33.4
2023-03-12T15:39:39.917Z,33.5
2023-03-12T15:45:46.010Z,33.6
2023-03-12T15:51:52.430Z,33.9
2023-03-12T15:57:58.640Z,34
2023-03-12T16:04:04.799Z,34
2023-03-12T16:10:11.202Z,34.1
2023-03-12T16:16:17.112Z,34.2
2023-03-12T16:22:22.764Z,33.9
2023-03-12T16:28:29.344Z,34.3
2023-03-12T16:34:35.596Z,34.1
2023-03-12T16:40:41.726Z,34.7
2023-03-12T16:46:47.731Z,34
2023-03-12T16:52:53.471Z,34
2023-03-12T16:59:00.720Z,34.2
2023-03-12T17:05:06.878Z,34
2023-03-12T17:11:12.704Z,34.2
2023-03-12T17:17:19.069Z,34.1
2023-03-12T17:23:25.067Z,34.4
2023-03-12T17:29:30.606Z,33.9
2023-03-12T17:35:37.021Z,34.1
2023-03-12T17:41:43.230Z,34.2
2023-03-12T17:47:48.966Z,33.9
2023-03-12T17:53:54.718Z,34.3
2023-03-12T18:00:00.932Z,34.2
2023-03-12T18:06:07.152Z,34
2023-03-12T18:12:12.992Z,34.3
2023-03-12T18:18:18.839Z,34.3
2023-03-12T18:24:24.827Z,34.6
2023-03-12T18:30:31.241Z,34.2
2023-03-12T18:36:37.394Z,34.1
2023-03-12T18:42:43.594Z,34.5
2023-03-12T18:48:49.396Z,34.3
2023-03-12T18:54:55.553Z,34.2
2023-03-12T19:01:01.984Z,34.2
2023-03-12T19:07:07.739Z,34.5
2023-03-12T19:13:13.117Z,34.2
2023-03-12T19:19:19.277Z,34.3
2023-03-12T19:25:25.496Z,34.3
2023-03-12T19:31:31.493Z,34.6
2023-03-12T19:37:37.040Z,34.1
2023-03-12T19:43:42.412Z,34.5
2023-03-12T19:49:48.151Z,34.2
2023-03-12T19:55:54.358Z,34.3
2023-03-12T20:02:00.351Z,34.3
2023-03-12T20:08:05.991Z,34.3
2023-03-12T20:14:11.888Z,34.5
2023-03-12T20:20:18.299Z,34.4
2023-03-12T20:26:23.850Z,34.6
2023-03-12T20:32:29.855Z,34.2
2023-03-12T20:38:36.014Z,35
2023-03-12T20:44:41.809Z,34.4
2023-03-12T20:50:47.572Z,34.8
2023-03-12T20:56:53.551Z,34.5
2023-03-12T21:02:59.523Z,34.7
2023-03-12T21:09:05.523Z,34.5
2023-03-12T21:15:11.102Z,34.6
2023-03-12T21:21:16.690Z,34.7
2023-03-12T21:27:22.456Z,34.4
2023-03-12T21:33:27.826Z,34.9
2023-03-12T21:39:33.627Z,34.9
2023-03-12T21:45:38.962Z,34.7
2023-03-12T21:51:44.551Z,34.6
2023-03-12T21:57:50.319Z,35.1
2023-03-12T22:03:55.674Z,35
2023-03-12T22:10:01.664Z,34.7
2023-03-12T22:16:07.794Z,35.2
2023-03-12T22:22:13.611Z,34.8
2023-03-12T22:28:19.032Z,35.2
2023-03-12T22:34:24.604Z,35
2023-03-12T22:40:30.332Z,35.4
2023-03-12T22:46:36.586Z,35.4
2023-03-12T22:52:42.083Z,35.1
2023-03-12T22:58:48.269Z,35.2
2023-03-12T23:04:53.944Z,35.2
2023-03-12T23:10:59.402Z,35.3
2023-03-12T23:17:05.598Z,35.6
2023-03-12T23:23:11.794Z,35.2
2023-03-12T23:29:17.372Z,35.1
2023-03-12T23:35:23.583Z,35.3
2023-03-12T23:41:29.642Z,35.1
2023-03-12T23:47:35.519Z,35.4
2023-03-12T23:53:41.550Z,35.3
2023-03-12T23:59:47.178Z,35.5
